ポンタ・デルガダ の空港の天気 - METARとTAF

ポンタ・デルガダ空港 ( LPPD / PDL ) - ポルトガル ポンタ・デルガダ (サンミゲル島)
飛行場実況気象(Metar)
観測時間03/28 21:00 +00 (03/28 21:00 UTC)
風向・風速西南西 10m/s
視程10km以上
天気現象
少しの雲 雲底高度 430m
全天の4割程度の雲 雲底高度 1070m
気温15℃
湿度88%
気圧1010hPa
METARLPPD 282100Z 24019KT 9999 FEW014 SCT035 15/13 Q1010
過去の天気等 Google飛行場航空写真 Wunderground天気予報

過去48時間のMETAR

飛行場予報(TAF)
発表時間: 3/28 17:00 +00 (3/28 17:00 UTC)
予報対象時間: 28日18時 +00 ~ 29日18時 +00
風向・風速南西 9m/s
視程10km以上
全天の4割程度の雲 雲底高度 460m
全天の4割程度の雲 雲底高度 910m
28日18時 +00 ~ 29日18時 +00 に一時的に
風向・風速南西 13m/s 瞬間風速 18m/s
視程5,000m
天気現象しゅう雨
全天の4割程度の雲 雲底高度 240m
全天の8割程度の雲 雲底高度 400m
少しの塔状積雲 雲底高度 550m
TAF LPPD 281700Z 2818/2918 22018KT 9999 SCT015 SCT030
TEMPO 2818/2918 22025G35KT 5000 SHRA SCT008 BKN013 FEW018TCU